createdAt,value
2024-04-08T07:42:00.451Z,97171.13
2024-04-08T07:44:29.988Z,97172.09
2024-04-08T07:46:59.502Z,97170.72
2024-04-08T07:49:28.939Z,97167.53
2024-04-08T07:51:58.387Z,97156.19
2024-04-08T07:54:27.907Z,97155.72
2024-04-08T07:57:00.176Z,97159.50
2024-04-08T07:59:29.687Z,97164.31
2024-04-08T08:01:59.297Z,97162.72
2024-04-08T08:04:28.825Z,97159.66
2024-04-08T08:06:58.367Z,97161.25
2024-04-08T08:09:27.922Z,97159.34
2024-04-08T08:12:00.722Z,97153.13
2024-04-08T08:14:30.168Z,97151.34
2024-04-08T08:16:59.689Z,97145.13
2024-04-08T08:19:29.143Z,97143.31
2024-04-08T08:21:58.711Z,97144.28
2024-04-08T08:24:28.271Z,97148.28
2024-04-08T08:27:00.710Z,97150.66
2024-04-08T08:29:30.631Z,97148.88
2024-04-08T08:32:00.947Z,97147.06
2024-04-08T08:34:30.523Z,97139.13
2024-04-08T08:37:00.100Z,97150.16
2024-04-08T08:39:29.684Z,97144.19
2024-04-08T08:42:03.351Z,97140.19
2024-04-08T08:44:34.087Z,97144.50
2024-04-08T08:47:03.996Z,97141.16
2024-04-08T08:49:33.678Z,97134.47
2024-04-08T08:52:08.305Z,97134.78
2024-04-08T08:54:38.018Z,97129.97
2024-04-08T08:57:11.542Z,97139.53
2024-04-08T08:59:43.376Z,97137.78
2024-04-08T09:02:14.676Z,97141.78
2024-04-08T09:04:44.651Z,97131.13
2024-04-08T09:07:14.144Z,97132.25
2024-04-08T09:09:53.911Z,97132.56
2024-04-08T09:12:26.363Z,97130.16
2024-04-08T09:14:55.919Z,97128.56
2024-04-08T09:17:25.630Z,97122.97
2024-04-08T09:19:55.597Z,97124.09
2024-04-08T09:22:26.372Z,97115.09
2024-04-08T09:24:55.957Z,97117.34
2024-04-08T09:27:28.089Z,97118.63
2024-04-08T09:29:57.582Z,97110.16
2024-04-08T09:32:27.065Z,97108.59
2024-04-08T09:34:56.573Z,97105.88
2024-04-08T09:37:27.200Z,97107.28
2024-04-08T09:39:57.065Z,97103.78
2024-04-08T09:42:33.629Z,97099.78
2024-04-08T09:45:05.122Z,97097.84
2024-04-08T09:47:37.359Z,97091.97
2024-04-08T09:50:07.486Z,97091.91
2024-04-08T09:52:37.403Z,97086.66
2024-04-08T09:55:10.003Z,97080.22
2024-04-08T09:57:44.257Z,97072.41
2024-04-08T10:00:16.701Z,97079.72
2024-04-08T10:02:49.850Z,97077.63
2024-04-08T10:05:20.166Z,97077.63
2024-04-08T10:07:50.864Z,97079.66
2024-04-08T10:10:20.781Z,97077.25
2024-04-08T10:12:53.468Z,97076.47
2024-04-08T10:15:23.414Z,97073.47
2024-04-08T10:17:53.745Z,97063.25
2024-04-08T10:20:23.354Z,97064.03
2024-04-08T10:22:53.365Z,97063.25
2024-04-08T10:25:40.048Z,97061.66
2024-04-08T10:28:12.566Z,97061.66
2024-04-08T10:30:45.705Z,97062.28
2024-04-08T10:33:16.115Z,97059.88
2024-04-08T10:35:45.710Z,97056.34
2024-04-08T10:38:15.358Z,97054.47
2024-04-08T10:40:44.899Z,97046.63
2024-04-08T10:43:17.101Z,97047.44
2024-04-08T10:45:46.655Z,97049.66
2024-04-08T10:48:17.828Z,97039.06
2024-04-08T10:50:49.403Z,97030.44
2024-04-08T10:53:19.390Z,97030.47
2024-04-08T10:55:48.907Z,97032.53
2024-04-08T10:58:21.076Z,97042.19
2024-04-08T11:00:50.659Z,97030.13
2024-04-08T11:03:21.621Z,97025.66
2024-04-08T11:05:51.338Z,97033.16
2024-04-08T11:08:20.975Z,97042.28
2024-04-08T11:10:51.052Z,97032.03
2024-04-08T11:13:23.274Z,97034.38
2024-04-08T11:15:53.014Z,97029.31
2024-04-08T11:18:23.022Z,97041.38
2024-04-08T11:20:52.889Z,97039.28
2024-04-08T11:23:22.831Z,97034.53
2024-04-08T11:25:54.386Z,97028.38
2024-04-08T11:28:27.217Z,97024.94
2024-04-08T11:30:56.795Z,97021.44
2024-04-08T11:33:26.796Z,97018.16
2024-04-08T11:35:58.334Z,97021.69
2024-04-08T11:38:35.780Z,97022.59
2024-04-08T11:41:08.037Z,97024.66
2024-04-08T11:43:42.246Z,97025.75
2024-04-08T11:46:13.791Z,97022.88
2024-04-08T11:48:46.367Z,97016.28
2024-04-08T11:51:16.007Z,97015.97
2024-04-08T11:53:45.558Z,97016.13
2024-04-08T11:56:15.305Z,97007.09
2024-04-08T11:58:47.520Z,97001.50
2024-04-08T12:01:17.194Z,96998.44
2024-04-08T12:03:46.757Z,97007.78
2024-04-08T12:06:16.962Z,96997.22
2024-04-08T12:08:46.594Z,96995.47
2024-04-08T12:11:16.204Z,96992.16
2024-04-08T12:13:48.378Z,96995.81
2024-04-08T12:16:18.376Z,96988.72
2024-04-08T12:18:47.949Z,96998.75
2024-04-08T12:21:17.465Z,96997.75
2024-04-08T12:23:47.075Z,96992.16
2024-04-08T12:26:17.331Z,96988.25
2024-04-08T12:28:49.570Z,96996.84
2024-04-08T12:31:19.415Z,97007.81
2024-04-08T12:33:49.096Z,97010.03
2024-04-08T12:36:18.940Z,97006.06
2024-04-08T12:38:48.516Z,97014.81
2024-04-08T12:41:19.303Z,97022.13
2024-04-08T12:43:55.542Z,97013.53
2024-04-08T12:46:25.766Z,97018.94
2024-04-08T12:48:55.406Z,97015.09
2024-04-08T12:51:25.025Z,97014.59
2024-04-08T12:53:54.656Z,97009.53
2024-04-08T12:56:24.816Z,97014.13
2024-04-08T12:59:00.229Z,97011.22
2024-04-08T13:01:30.043Z,97016.19
2024-04-08T13:03:59.607Z,97008.38
2024-04-08T13:06:29.335Z,97013.78
2024-04-08T13:08:58.898Z,97009.34
2024-04-08T13:11:28.488Z,97009.84
2024-04-08T13:14:00.767Z,97009.19
2024-04-08T13:16:30.252Z,97007.28
2024-04-08T13:18:59.923Z,97005.50
2024-04-08T13:21:29.712Z,97000.75
2024-04-08T13:23:59.303Z,96995.03
2024-04-08T13:26:32.035Z,97000.44
2024-04-08T13:29:04.228Z,96984.19
2024-04-08T13:31:33.988Z,96983.72
2024-04-08T13:34:04.800Z,96972.38
2024-04-08T13:36:36.261Z,96969.53
2024-04-08T13:39:06.031Z,96966.00
2024-04-08T13:41:35.632Z,96950.59
2024-04-08T13:44:07.842Z,96956.31
2024-04-08T13:46:37.417Z,96955.69
2024-04-08T13:49:06.906Z,96954.59
2024-04-08T13:51:36.615Z,96944.06
2024-04-08T13:54:06.365Z,96942.47
2024-04-08T13:56:35.926Z,96941.81
2024-04-08T13:59:08.092Z,96937.72
2024-04-08T14:01:37.595Z,96931.50
2024-04-08T14:04:07.100Z,96940.22
2024-04-08T14:06:37.277Z,96932.41
2024-04-08T14:09:07.062Z,96924.47
2024-04-08T14:11:41.078Z,96928.78
2024-04-08T14:14:14.537Z,96926.69
2024-04-08T14:16:44.073Z,96923.50
2024-04-08T14:19:13.685Z,96920.81
2024-04-08T14:21:43.292Z,96923.97
2024-04-08T14:24:12.824Z,96918.56
2024-04-08T14:26:42.438Z,96909.41
2024-04-08T14:29:17.860Z,96910.63
2024-04-08T14:31:51.558Z,96907.44
2024-04-08T14:34:21.194Z,96908.06
2024-04-08T14:36:52.044Z,96903.47
2024-04-08T14:39:32.714Z,96908.06
2024-04-08T14:42:07.318Z,96898.47
2024-04-08T14:44:45.203Z,96904.88
2024-04-08T14:47:17.967Z,96891.81
2024-04-08T14:49:48.063Z,96892.13
2024-04-08T14:52:23.669Z,96895.97
2024-04-08T14:54:59.490Z,96894.69
2024-04-08T14:57:29.287Z,96883.84
2024-04-08T15:00:01.978Z,96880.66
2024-04-08T15:02:32.376Z,96885.75
2024-04-08T15:05:01.945Z,96875.22
2024-04-08T15:07:34.914Z,96871.25
2024-04-08T15:10:05.242Z,96869.81
2024-04-08T15:12:35.393Z,96869.34
2024-04-08T15:15:08.067Z,96858.97
2024-04-08T15:17:40.267Z,96855.31
2024-04-08T15:20:10.246Z,96851.78
2024-04-08T15:22:39.876Z,96851.63
2024-04-08T15:25:09.486Z,96846.84
2024-04-08T15:27:39.627Z,96847.16
2024-04-08T15:30:13.038Z,96846.69
2024-04-08T15:32:42.924Z,96851.28
2024-04-08T15:35:14.668Z,96855.47
2024-04-08T15:37:44.519Z,96856.72
2024-04-08T15:40:14.091Z,96846.69
2024-04-08T15:42:43.627Z,96848.09
2024-04-08T15:45:18.814Z,96850.78
2024-04-08T15:47:48.677Z,96847.47
2024-04-08T15:50:18.526Z,96843.66
2024-04-08T15:52:48.295Z,96841.59
2024-04-08T15:55:18.256Z,96842.66
2024-04-08T15:57:50.173Z,96839.50
2024-04-08T16:00:22.428Z,96841.41
2024-04-08T16:02:52.072Z,96843.31
2024-04-08T16:05:22.562Z,96840.94
2024-04-08T16:07:52.353Z,96835.50
2024-04-08T16:10:21.927Z,96838.53
2024-04-08T16:12:51.536Z,96843.13
2024-04-08T16:15:23.875Z,96834.25
2024-04-08T16:17:53.732Z,96831.53
2024-04-08T16:20:23.512Z,96827.22
2024-04-08T16:23:09.095Z,96826.13
2024-04-08T16:25:44.614Z,96829.44
2024-04-08T16:28:14.176Z,96829.75
2024-04-08T16:30:54.298Z,96826.25
2024-04-08T16:33:24.299Z,96827.22
2024-04-08T16:35:53.900Z,96824.16
2024-04-08T16:38:23.469Z,96821.78
2024-04-08T16:40:53.603Z,96815.56
2024-04-08T16:43:24.701Z,96816.69
2024-04-08T16:45:58.273Z,96804.25
2024-04-08T16:48:29.304Z,96813.50
2024-04-08T16:50:59.695Z,96817.78
2024-04-08T16:53:29.433Z,96812.69
2024-04-08T16:56:04.670Z,96800.25
2024-04-08T16:58:34.123Z,96798.38
2024-04-08T17:01:06.281Z,96792.00
2024-04-08T17:03:36.000Z,96783.88
2024-04-08T17:06:07.279Z,96779.53
2024-04-08T17:08:36.890Z,96769.53
2024-04-08T17:11:06.401Z,96752.81
2024-04-08T17:13:36.519Z,96746.00
2024-04-08T17:16:09.194Z,96746.19
2024-04-08T17:18:38.865Z,96746.03
2024-04-08T17:21:08.777Z,96739.81
2024-04-08T17:23:38.423Z,96739.97
2024-04-08T17:26:08.041Z,96751.63
2024-04-08T17:28:37.543Z,96755.41
2024-04-08T17:31:09.757Z,96756.22
2024-04-08T17:33:39.463Z,96751.94
2024-04-08T17:36:09.597Z,96738.06
2024-04-08T17:38:40.163Z,96741.41
2024-04-08T17:41:11.330Z,96737.72
2024-04-08T17:43:41.902Z,96740.44
2024-04-08T17:46:14.099Z,96735.78
2024-04-08T17:48:43.689Z,96746.03
2024-04-08T17:51:14.005Z,96741.06
2024-04-08T17:53:43.590Z,96736.63
2024-04-08T17:56:15.159Z,96739.66
2024-04-08T17:58:45.863Z,96722.59
2024-04-08T18:01:22.833Z,96726.88
2024-04-08T18:03:53.301Z,96734.56
2024-04-08T18:06:23.685Z,96733.09
2024-04-08T18:08:53.889Z,96739.16
2024-04-08T18:11:26.271Z,96748.88
2024-04-08T18:13:55.993Z,96750.94
2024-04-08T18:16:33.091Z,96748.38
2024-04-08T18:19:03.626Z,96753.31
2024-04-08T18:21:37.294Z,96759.84
2024-04-08T18:24:07.944Z,96757.47
2024-04-08T18:26:37.485Z,96755.06
2024-04-08T18:29:09.297Z,96755.72
2024-04-08T18:31:41.480Z,96760.00
2024-04-08T18:34:11.227Z,96757.13
2024-04-08T18:36:42.490Z,96756.34
2024-04-08T18:39:12.905Z,96763.97
2024-04-08T18:41:42.482Z,96765.91
2024-04-08T18:44:13.506Z,96766.22
2024-04-08T18:46:45.744Z,96770.81
2024-04-08T18:49:15.354Z,96761.13
2024-04-08T18:51:44.971Z,96764.59
2024-04-08T18:54:14.770Z,96768.63
2024-04-08T18:56:45.384Z,96768.28
2024-04-08T18:59:16.780Z,96765.25
2024-04-08T19:01:49.387Z,96754.94
2024-04-08T19:04:19.233Z,96756.03
2024-04-08T19:06:48.967Z,96748.25
2024-04-08T19:09:18.625Z,96763.06
2024-04-08T19:11:53.025Z,96757.63
2024-04-08T19:14:24.041Z,96761.44
2024-04-08T19:16:58.508Z,96764.81
2024-04-08T19:19:28.673Z,96756.50
2024-04-08T19:21:58.433Z,96765.88
2024-04-08T19:24:28.004Z,96752.03
2024-04-08T19:26:57.610Z,96759.84
2024-04-08T19:29:27.230Z,96756.81
2024-04-08T19:31:59.830Z,96752.22
2024-04-08T19:34:29.499Z,96752.69
2024-04-08T19:36:59.318Z,96746.19
2024-04-08T19:39:29.776Z,96759.38
2024-04-08T19:41:59.578Z,96745.81
2024-04-08T19:44:29.182Z,96743.94
2024-04-08T19:47:02.301Z,96737.88
2024-04-08T19:49:32.478Z,96748.72
2024-04-08T19:52:02.991Z,96747.59
2024-04-08T19:54:32.748Z,96746.81
2024-04-08T19:57:02.836Z,96730.88
2024-04-08T19:59:32.555Z,96740.41
2024-04-08T20:02:05.341Z,96742.50
2024-04-08T20:04:34.900Z,96735.16
2024-04-08T20:07:04.917Z,96729.28
2024-04-08T20:09:34.873Z,96732.94
2024-04-08T20:12:05.006Z,96744.41
2024-04-08T20:14:34.592Z,96736.94
2024-04-08T20:17:07.605Z,96732.28
2024-04-08T20:19:37.314Z,96722.91
2024-04-08T20:22:06.914Z,96724.34
2024-04-08T20:24:37.425Z,96717.34
2024-04-08T20:27:07.079Z,96717.66
2024-04-08T20:29:36.807Z,96715.56
2024-04-08T20:32:09.206Z,96704.75
2024-04-08T20:34:41.838Z,96711.28
2024-04-08T20:37:12.169Z,96696.16
2024-04-08T20:39:41.879Z,96702.19
2024-04-08T20:42:11.814Z,96705.53
2024-04-08T20:44:41.542Z,96698.22
2024-04-08T20:47:13.908Z,96695.81
2024-04-08T20:49:43.962Z,96698.53
2024-04-08T20:52:13.579Z,96698.03
2024-04-08T20:54:43.564Z,96694.56
2024-04-08T20:57:13.366Z,96694.88
2024-04-08T20:59:43.080Z,96689.47
2024-04-08T21:02:15.299Z,96687.84
2024-04-08T21:04:45.922Z,96685.13
2024-04-08T21:07:15.531Z,96687.69
2024-04-08T21:09:45.099Z,96685.63
2024-04-08T21:12:14.655Z,96687.50
2024-04-08T21:14:44.240Z,96685.94
2024-04-08T21:17:16.526Z,96678.94
2024-04-08T21:19:46.034Z,96682.75
2024-04-08T21:22:15.564Z,96675.72
2024-04-08T21:24:48.919Z,96684.97
2024-04-08T21:27:18.994Z,96678.59
2024-04-08T21:29:48.679Z,96679.88
2024-04-08T21:32:21.288Z,96683.38
2024-04-08T21:34:52.468Z,96687.22
2024-04-08T21:37:21.997Z,96685.59
2024-04-08T21:39:51.622Z,96685.59
2024-04-08T21:42:21.267Z,96682.44
2024-04-08T21:44:51.033Z,96680.50
2024-04-08T21:47:23.264Z,96674.31
2024-04-08T21:49:52.806Z,96682.44
2024-04-08T21:52:22.646Z,96673.50
2024-04-08T21:54:52.154Z,96667.31
2024-04-08T21:57:21.887Z,96673.81
2024-04-08T21:59:52.416Z,96673.03
2024-04-08T22:02:24.792Z,96660.28
2024-04-08T22:04:54.459Z,96667.91
2024-04-08T22:07:51.907Z,96663.31
2024-04-08T22:10:21.326Z,96665.22
2024-04-08T22:12:50.719Z,96665.22
2024-04-08T22:15:20.283Z,96660.88
2024-04-08T22:17:54.061Z,96668.22
2024-04-08T22:20:26.436Z,96673.63
2024-04-08T22:22:55.929Z,96662.00
2024-04-08T22:25:25.564Z,96666.28
2024-04-08T22:27:54.958Z,96653.44
2024-04-08T22:30:24.658Z,96657.72
2024-04-08T22:32:57.006Z,96649.59
2024-04-08T22:35:26.481Z,96637.97
2024-04-08T22:37:55.917Z,96631.78
2024-04-08T22:40:25.337Z,96625.88
2024-04-08T22:42:54.972Z,96629.06
2024-04-08T22:45:24.488Z,96616.63
2024-04-08T22:47:56.892Z,96617.44
2024-04-08T22:50:26.375Z,96604.22
2024-04-08T22:52:55.809Z,96592.59
2024-04-08T22:55:25.244Z,96593.41
2024-04-08T22:57:55.090Z,96586.88
2024-04-08T23:00:24.691Z,96577.16
2024-04-08T23:02:58.986Z,96570.19
2024-04-08T23:05:29.272Z,96567.47
2024-04-08T23:07:58.749Z,96570.94
2024-04-08T23:10:28.530Z,96567.47
2024-04-08T23:12:57.957Z,96576.72
2024-04-08T23:15:27.481Z,96569.38
2024-04-08T23:17:59.732Z,96571.28
2024-04-08T23:20:29.307Z,96562.38
2024-04-08T23:22:58.679Z,96562.38
2024-04-08T23:25:28.180Z,96554.25
2024-04-08T23:27:57.575Z,96555.06
2024-04-08T23:30:27.039Z,96546.47
2024-04-08T23:33:01.881Z,96553.44
2024-04-08T23:35:32.749Z,96553.44
2024-04-08T23:38:02.777Z,96559.97
2024-04-08T23:40:32.268Z,96547.25
2024-04-08T23:43:01.702Z,96550.28
2024-04-08T23:45:31.371Z,96541.84
2024-04-08T23:48:04.105Z,96535.63
2024-04-08T23:50:34.695Z,96540.25
2024-04-08T23:53:04.506Z,96548.34
2024-04-08T23:55:34.111Z,96542.16
2024-04-08T23:58:03.906Z,96536.25
